Time;durP1;ratioP1;P1;durP2;ratioP2;P2;SDS_P1;SDS_P2;PMS_P1;PMS_P2;Temp;Humidity;BMP_temperature;BMP_pressure;BME280_temperature;BME280_humidity;BME280_pressure;Samples;Min_cycle;Max_cycle;Signal;HPM_P1;HPM_P2
2022/01/27 00:01:25;;;;;;;;;;;;;;;18.54;43.80;101085.34;2085212;28;19920;-49
2022/01/27 00:03:34;;;;;;;;;;;;;;;18.53;43.86;101077.31;2084080;28;20019;-47
2022/01/27 00:04:47;;;;;;;;;;;;;;;18.52;43.73;101078.28;2085050;28;20701;-48
2022/01/27 00:06:02;;;;;;;;;;;;;;;18.50;43.96;101080.28;2082439;28;19924;-50
2022/01/27 00:07:03;;;;;;;;;;;;;;;18.48;43.97;101088.59;2082720;28;19935;-49
2022/01/27 00:09:42;;;;;;;;;;;;;;;18.46;44.01;101078.78;2080930;28;20015;-48
2022/01/27 00:11:32;;;;;;;;;;;;;;;18.45;44.01;101075.19;2083079;28;19926;-47
2022/01/27 00:12:33;;;;;;;;;;;;;;;18.43;44.00;101069.84;2085173;28;20235;-48
2022/01/27 00:13:43;;;;;;;;;;;;;;;18.43;44.02;101072.56;2082428;28;20024;-49
2022/01/27 00:14:46;;;;;;;;;;;;;;;18.42;43.99;101062.66;2081355;28;19954;-48
2022/01/27 00:15:49;;;;;;;;;;;;;;;18.42;43.92;101054.47;2084297;28;19927;-47
2022/01/27 00:16:56;;;;;;;;;;;;;;;18.41;44.02;101058.16;2086879;28;20288;-49
2022/01/27 00:18:01;;;;;;;;;;;;;;;18.41;44.03;101049.13;2080807;28;19920;-48
2022/01/27 00:19:01;;;;;;;;;;;;;;;18.40;43.92;101050.97;2084233;28;19919;-48
2022/01/27 00:20:01;;;;;;;;;;;;;;;18.40;44.04;101050.13;2087321;28;19924;-48
2022/01/27 00:21:01;;;;;;;;;;;;;;;18.40;44.09;101056.44;2086320;28;19920;-51
2022/01/27 00:22:02;;;;;;;;;;;;;;;18.39;44.06;101057.41;2081117;28;19924;-49
2022/01/27 00:23:02;;;;;;;;;;;;;;;18.41;44.05;101047.25;2084430;28;19921;-47
2022/01/27 00:24:03;;;;;;;;;;;;;;;18.40;44.02;101050.97;2085585;28;19927;-47
2022/01/27 00:25:05;;;;;;;;;;;;;;;18.41;44.11;101060.91;2087788;28;19920;-48
2022/01/27 00:26:06;;;;;;;;;;;;;;;18.40;43.87;101050.97;2081012;28;19913;-50
2022/01/27 00:27:06;;;;;;;;;;;;;;;18.41;43.94;101062.75;2083329;28;20210;-50
2022/01/27 00:28:06;;;;;;;;;;;;;;;18.40;44.04;101055.59;2083306;28;19924;-48
2022/01/27 00:29:07;;;;;;;;;;;;;;;18.38;44.13;101058.41;2080893;28;20358;-49
2022/01/27 00:30:08;;;;;;;;;;;;;;;18.39;43.97;101056.56;2081801;28;20850;-48
2022/01/27 00:31:08;;;;;;;;;;;;;;;18.38;43.89;101055.69;2084409;28;20378;-48
2022/01/27 00:32:08;;;;;;;;;;;;;;;18.37;44.05;101056.69;2079459;28;19921;-49
2022/01/27 00:33:09;;;;;;;;;;;;;;;18.36;44.24;101060.41;2084731;28;20764;-49
2022/01/27 00:34:09;;;;;;;;;;;;;;;18.34;44.08;101056.91;2087113;28;19924;-48
2022/01/27 00:35:10;;;;;;;;;;;;;;;18.33;44.15;101063.38;2084504;28;19920;-50
2022/01/27 00:36:10;;;;;;;;;;;;;;;18.34;44.23;101072.44;2084888;28;19921;-48
2022/01/27 00:37:10;;;;;;;;;;;;;;;18.33;44.23;101062.53;2079601;28;19921;-47
2022/01/27 00:38:10;;;;;;;;;;;;;;;18.32;44.15;101069.81;2084679;28;19967;-48
2022/01/27 00:39:11;;;;;;;;;;;;;;;18.31;44.30;101057.16;2078496;28;20415;-48
2022/01/27 00:40:12;;;;;;;;;;;;;;;18.30;44.04;101049.97;2085186;28;19919;-48
2022/01/27 00:41:19;;;;;;;;;;;;;;;18.31;44.05;101056.31;2080190;28;20692;-48
2022/01/27 00:42:20;;;;;;;;;;;;;;;18.29;44.11;101053.69;2081713;28;19917;-48
2022/01/27 00:43:20;;;;;;;;;;;;;;;18.28;44.17;101049.22;2085810;28;19968;-49
2022/01/27 00:44:20;;;;;;;;;;;;;;;18.28;44.24;101051.97;2084400;28;19916;-49
2022/01/27 00:45:23;;;;;;;;;;;;;;;18.28;44.38;101048.38;2080852;28;19963;-49
2022/01/27 00:46:23;;;;;;;;;;;;;;;18.27;44.31;101061.13;2078127;28;20345;-47
2022/01/27 00:47:23;;;;;;;;;;;;;;;18.26;44.14;101053.94;2085300;28;20861;-48
2022/01/27 00:48:24;;;;;;;;;;;;;;;18.25;44.33;101052.22;2081141;28;19959;-49
2022/01/27 00:49:25;;;;;;;;;;;;;;;18.26;44.17;101059.41;2084589;28;19920;-48
2022/01/27 00:50:25;;;;;;;;;;;;;;;18.26;44.40;101050.34;2083028;28;20019;-48
2022/01/27 00:51:29;;;;;;;;;;;;;;;18.26;44.11;101051.22;2082798;28;20188;-48
2022/01/27 00:52:43;;;;;;;;;;;;;;;18.26;44.08;101048.47;2084749;28;20275;-51
2022/01/27 00:53:53;;;;;;;;;;;;;;;18.27;44.23;101054.78;2083774;28;19924;-49
2022/01/27 00:54:54;;;;;;;;;;;;;;;18.26;44.18;101058.53;2082938;28;19921;-48
2022/01/27 00:55:57;;;;;;;;;;;;;;;18.26;44.39;101059.41;2079168;28;19963;-48
2022/01/27 00:57:14;;;;;;;;;;;;;;;18.25;44.13;101060.41;2079464;28;20003;-48
2022/01/27 00:59:35;;;;;;;;;;;;;;;18.24;44.21;101053.19;2083618;28;19927;-47
2022/01/27 01:00:41;;;;;;;;;;;;;;;18.24;44.08;101055.91;2083183;28;20274;-47
2022/01/27 01:01:47;;;;;;;;;;;;;;;18.24;44.15;101072.28;2084456;28;20548;-47
2022/01/27 01:03:14;;;;;;;;;;;;;;;18.23;44.34;101061.47;2084546;28;19927;-49
2022/01/27 01:04:15;;;;;;;;;;;;;;;18.21;44.43;101064.34;2081548;28;19951;-49
2022/01/27 01:06:13;;;;;;;;;;;;;;;18.21;44.33;101061.63;2085716;28;20555;-48
2022/01/27 01:07:39;;;;;;;;;;;;;;;18.17;44.20;101071.88;2084612;28;20011;-49
2022/01/27 01:15:00;;;;;;;;;;;;;;;18.12;44.39;101056.88;2063466;28;19925;-47
2022/01/27 01:16:00;;;;;;;;;;;;;;;18.11;44.34;101053.28;2073199;28;19928;-48
2022/01/27 01:18:42;;;;;;;;;;;;;;;18.10;44.64;101047.94;2083987;28;20589;-48
2022/01/27 01:19:58;;;;;;;;;;;;;;;18.08;44.54;101048.06;2085018;28;19920;-48
2022/01/27 01:32:43;;;;;;;;;;;;;;;18.05;44.31;101044.69;2081748;28;19978;-48
2022/01/27 01:33:45;;;;;;;;;;;;;;;18.04;44.46;101042.97;2082459;28;20238;-47
2022/01/27 01:34:48;;;;;;;;;;;;;;;18.02;44.39;101039.50;2079069;28;20291;-38
2022/01/27 01:35:51;;;;;;;;;;;;;;;18.02;44.47;101045.81;2083971;28;20491;-39
2022/01/27 01:37:02;;;;;;;;;;;;;;;17.98;44.38;101039.75;2084324;28;19925;-39
2022/01/27 01:38:02;;;;;;;;;;;;;;;17.99;44.63;101052.38;2081889;28;19924;-38
2022/01/27 01:39:06;;;;;;;;;;;;;;;17.97;44.44;101043.44;2081367;28;19920;-39
2022/01/27 01:40:08;;;;;;;;;;;;;;;17.96;44.51;101041.72;2083176;28;19920;-39
2022/01/27 01:41:09;;;;;;;;;;;;;;;17.96;44.62;101038.13;2082340;28;19970;-38
2022/01/27 01:42:10;;;;;;;;;;;;;;;17.95;44.59;101039.97;2083083;28;19920;-38
2022/01/27 01:43:11;;;;;;;;;;;;;;;17.94;44.65;101049.16;2080633;28;20011;-39
2022/01/27 01:44:11;;;;;;;;;;;;;;;17.95;44.78;101050.88;2083184;28;20294;-39
2022/01/27 01:45:13;;;;;;;;;;;;;;;17.94;44.74;101048.28;2083827;28;19966;-38
2022/01/27 01:46:13;;;;;;;;;;;;;;;17.94;44.69;101060.06;2084616;28;19924;-38
2022/01/27 01:47:13;;;;;;;;;;;;;;;17.94;44.49;101056.47;2083676;28;19978;-39
2022/01/27 01:48:14;;;;;;;;;;;;;;;17.93;44.79;101058.34;2086167;28;19960;-39
2022/01/27 01:49:15;;;;;;;;;;;;;;;17.93;44.64;101063.78;2083240;28;20910;-39
2022/01/27 01:50:16;;;;;;;;;;;;;;;17.93;44.72;101062.88;2085270;28;19966;-39
2022/01/27 01:51:26;;;;;;;;;;;;;;;17.93;44.37;101060.16;2083643;28;19913;-39
2022/01/27 01:52:27;;;;;;;;;;;;;;;17.91;44.76;101060.31;2082830;28;20274;-39
2022/01/27 01:53:27;;;;;;;;;;;;;;;17.91;44.74;101060.31;2085132;28;20222;-39
2022/01/27 01:54:27;;;;;;;;;;;;;;;17.92;44.59;101061.16;2083599;28;20456;-39
2022/01/27 01:55:29;;;;;;;;;;;;;;;17.91;44.53;101064.91;2084852;28;19987;-39
2022/01/27 01:56:29;;;;;;;;;;;;;;;17.90;44.67;101069.47;2084619;28;19921;-39
2022/01/27 01:57:30;;;;;;;;;;;;;;;17.91;44.75;101065.75;2084630;28;19927;-39
2022/01/27 01:58:30;;;;;;;;;;;;;;;17.90;44.53;101069.47;2082902;28;20001;-39
2022/01/27 01:59:30;;;;;;;;;;;;;;;17.89;44.56;101067.72;2080197;28;19920;-39
2022/01/27 02:00:31;;;;;;;;;;;;;;;17.90;44.65;101074.06;2077449;28;19932;-39
2022/01/27 02:01:31;;;;;;;;;;;;;;;17.89;44.39;101072.31;2084763;28;19970;-39
2022/01/27 02:02:32;;;;;;;;;;;;;;;17.88;44.52;101076.88;2083483;28;20019;-39
2022/01/27 02:03:32;;;;;;;;;;;;;;;17.88;44.44;101071.44;2086077;28;20340;-39
2022/01/27 02:04:32;;;;;;;;;;;;;;;17.88;44.40;101065.97;2084333;28;19924;-39
2022/01/27 02:05:39;;;;;;;;;;;;;;;17.87;44.59;101069.69;2083080;28;20388;-39
2022/01/27 02:06:54;;;;;;;;;;;;;;;17.87;44.51;101068.84;2080255;28;19921;-39
2022/01/27 02:18:52;;;;;;;;;;;;;;;17.88;44.57;101065.09;2084671;28;20444;-39
2022/01/27 02:19:53;;;;;;;;;;;;;;;17.87;44.65;101069.69;2082000;28;19999;-39
2022/01/27 02:20:54;;;;;;;;;;;;;;;17.87;44.51;101066.97;2079935;28;19920;-39
2022/01/27 02:22:02;;;;;;;;;;;;;;;17.87;44.81;101066.09;2083763;28;19924;-39
2022/01/27 02:23:04;;;;;;;;;;;;;;;17.86;44.87;101062.53;2078853;28;19931;-39
2022/01/27 02:24:04;;;;;;;;;;;;;;;17.86;44.61;101065.25;2084593;28;20370;-39
2022/01/27 02:25:04;;;;;;;;;;;;;;;17.85;44.90;101066.22;2080692;28;20273;-39
2022/01/27 02:26:05;;;;;;;;;;;;;;;17.85;44.64;101059.91;2085589;28;19994;-39
2022/01/27 02:27:05;;;;;;;;;;;;;;;17.85;44.66;101066.22;2082561;28;19990;-39
2022/01/27 02:28:05;;;;;;;;;;;;;;;17.84;44.59;101061.75;2082301;28;20086;-38
2022/01/27 02:29:05;;;;;;;;;;;;;;;17.84;44.61;101058.16;2085289;28;20665;-39
2022/01/27 02:30:06;;;;;;;;;;;;;;;17.83;44.68;101057.28;2078329;28;20227;-39
2022/01/27 02:31:06;;;;;;;;;;;;;;;17.83;44.91;101062.72;2084833;28;20580;-39
2022/01/27 02:32:07;;;;;;;;;;;;;;;17.83;44.71;101062.72;2080935;28;19917;-39
2022/01/27 02:33:07;;;;;;;;;;;;;;;17.81;44.70;101059.28;2079033;28;20047;-39
2022/01/27 02:34:08;;;;;;;;;;;;;;;17.80;44.79;101062.97;2084243;28;19962;-39
2022/01/27 02:35:08;;;;;;;;;;;;;;;17.78;44.63;101054.00;2083662;28;19924;-39
2022/01/27 02:36:09;;;;;;;;;;;;;;;17.78;45.02;101054.91;2080379;28;19921;-39
2022/01/27 02:37:09;;;;;;;;;;;;;;;17.77;44.82;101052.28;2083630;28;19970;-39
2022/01/27 02:38:09;;;;;;;;;;;;;;;17.76;44.73;101047.78;2079040;28;19920;-39
2022/01/27 02:39:10;;;;;;;;;;;;;;;17.75;44.93;101048.78;2085627;28;19975;-39
2022/01/27 02:40:11;;;;;;;;;;;;;;;17.74;44.88;101052.53;2082367;28;20327;-39
2022/01/27 02:41:11;;;;;;;;;;;;;;;17.74;44.88;101052.53;2082652;28;19926;-39
2022/01/27 02:42:21;;;;;;;;;;;;;;;17.74;44.76;101052.53;2083828;28;19990;-39
2022/01/27 02:43:21;;;;;;;;;;;;;;;17.73;45.11;101051.63;2078148;28;20347;-39
2022/01/27 02:44:40;;;;;;;;;;;;;;;17.71;45.13;101045.44;2077560;28;20420;-38
2022/01/27 02:46:12;;;;;;;;;;;;;;;17.71;44.85;101053.63;2082483;28;19924;-39
2022/01/27 02:47:13;;;;;;;;;;;;;;;17.71;44.95;101055.47;2064307;28;19923;-39
2022/01/27 02:48:13;;;;;;;;;;;;;;;17.70;44.81;101051.00;2081316;28;19927;-39
2022/01/27 02:49:13;;;;;;;;;;;;;;;17.69;44.92;101052.00;2082877;28;20208;-40
2022/01/27 02:50:13;;;;;;;;;;;;;;;17.69;45.06;101049.28;2082866;28;19969;-39
2022/01/27 02:51:14;;;;;;;;;;;;;;;17.68;45.08;101059.28;2084763;28;19946;-40
2022/01/27 02:52:14;;;;;;;;;;;;;;;17.69;44.95;101054.75;2083517;28;20240;-39
2022/01/27 02:53:14;;;;;;;;;;;;;;;17.67;44.89;101056.72;2083280;28;19960;-39
2022/01/27 02:54:15;;;;;;;;;;;;;;;17.67;45.00;101051.25;2082287;28;19988;-39
2022/01/27 02:55:15;;;;;;;;;;;;;;;17.68;44.96;101059.28;2083636;28;20283;-39
2022/01/27 02:56:15;;;;;;;;;;;;;;;17.68;44.66;101053.84;2083493;28;19920;-39
2022/01/27 02:57:16;;;;;;;;;;;;;;;17.68;44.76;101052.97;2084589;28;19938;-39
2022/01/27 02:58:16;;;;;;;;;;;;;;;17.67;44.97;101052.13;2083063;28;19990;-39
2022/01/27 02:59:18;;;;;;;;;;;;;;;17.66;44.91;101044.91;2084597;28;19922;-39
2022/01/27 03:00:18;;;;;;;;;;;;;;;17.67;44.68;101048.53;2081978;28;19994;-39
2022/01/27 03:01:20;;;;;;;;;;;;;;;17.66;44.97;101047.63;2083196;28;19998;-39
2022/01/27 03:02:20;;;;;;;;;;;;;;;17.66;44.65;101060.41;2083131;28;19924;-39
2022/01/27 03:03:21;;;;;;;;;;;;;;;17.66;44.71;101049.50;2079058;28;19921;-39
2022/01/27 03:04:22;;;;;;;;;;;;;;;17.66;44.88;101049.50;2084820;28;19920;-39
2022/01/27 03:05:22;;;;;;;;;;;;;;;17.65;44.73;101053.22;2075421;28;19920;-39
2022/01/27 03:06:23;;;;;;;;;;;;;;;17.62;44.89;101059.78;2072206;28;19921;-39
2022/01/27 03:07:23;;;;;;;;;;;;;;;17.63;44.82;101055.19;2084403;28;19965;-39
2022/01/27 03:08:23;;;;;;;;;;;;;;;17.61;44.95;101047.13;2081444;28;19927;-39
2022/01/27 03:09:24;;;;;;;;;;;;;;;17.60;44.94;101053.56;2083206;28;20429;-39
2022/01/27 03:10:28;;;;;;;;;;;;;;;17.60;44.76;101049.97;2085354;28;20166;-39
2022/01/27 03:11:40;;;;;;;;;;;;;;;17.60;44.98;101049.97;2085536;28;19920;-39
2022/01/27 03:12:41;;;;;;;;;;;;;;;17.58;44.94;101045.50;2083896;28;19964;-39
2022/01/27 03:13:41;;;;;;;;;;;;;;;17.57;44.81;101049.22;2083614;28;19966;-39
2022/01/27 03:14:41;;;;;;;;;;;;;;;17.58;44.91;101052.81;2084018;28;20205;-39
2022/01/27 03:15:42;;;;;;;;;;;;;;;17.55;44.67;101048.47;2082460;28;19917;-39
2022/01/27 03:16:43;;;;;;;;;;;;;;;17.56;44.98;101050.22;2084415;28;19955;-39
2022/01/27 03:17:43;;;;;;;;;;;;;;;17.55;44.85;101047.59;2083648;28;20805;-39
2022/01/27 03:18:43;;;;;;;;;;;;;;;17.55;44.73;101053.91;2082594;28;19917;-39
2022/01/27 03:19:43;;;;;;;;;;;;;;;17.55;44.98;101053.06;2091183;28;19994;-39
2022/01/27 03:20:44;;;;;;;;;;;;;;;17.54;44.95;101045.84;2092430;28;20276;-39
2022/01/27 03:21:44;;;;;;;;;;;;;;;17.54;44.81;101052.19;2083183;28;19964;-39
2022/01/27 03:22:45;;;;;;;;;;;;;;;17.54;44.92;101048.56;2080279;28;19917;-39
2022/01/27 03:23:45;;;;;;;;;;;;;;;17.53;44.84;101044.13;2077743;28;20398;-39
2022/01/27 03:24:46;;;;;;;;;;;;;;;17.53;44.84;101034.06;2081996;28;19924;-39
2022/01/27 03:25:47;;;;;;;;;;;;;;;17.53;44.84;101034.06;2083972;28;19925;-39
2022/01/27 03:26:48;;;;;;;;;;;;;;;17.54;45.06;101030.38;2082559;28;19920;-39
2022/01/27 03:27:48;;;;;;;;;;;;;;;17.53;44.75;101033.22;2081763;28;19956;-39
2022/01/27 03:28:49;;;;;;;;;;;;;;;17.54;44.93;101035.84;2083223;28;20258;-39
2022/01/27 03:29:49;;;;;;;;;;;;;;;17.53;45.08;101044.13;2081380;28;19955;-39
2022/01/27 03:30:49;;;;;;;;;;;;;;;17.52;44.78;101040.53;2085326;28;19924;-39
2022/01/27 03:31:50;;;;;;;;;;;;;;;17.51;44.79;101049.69;2081116;28;20039;-39
2022/01/27 03:32:50;;;;;;;;;;;;;;;17.51;44.85;101048.81;2083028;28;19921;-40
2022/01/27 03:33:50;;;;;;;;;;;;;;;17.51;44.85;101040.63;2082091;28;19920;-39
2022/01/27 03:34:51;;;;;;;;;;;;;;;17.50;44.84;101041.63;2082747;28;19927;-39
2022/01/27 03:35:51;;;;;;;;;;;;;;;17.48;44.81;101041.75;2084956;28;19959;-39
2022/01/27 03:36:51;;;;;;;;;;;;;;;17.48;44.87;101041.75;2081801;28;19966;-39
2022/01/27 03:37:52;;;;;;;;;;;;;;;17.47;44.80;101040.00;2093777;28;19959;-38
2022/01/27 03:38:52;;;;;;;;;;;;;;;17.47;44.79;101039.16;2090467;28;19924;-39
2022/01/27 03:39:52;;;;;;;;;;;;;;;17.47;44.95;101045.47;2084696;28;19917;-39
2022/01/27 03:40:53;;;;;;;;;;;;;;;17.47;44.92;101045.47;2084005;28;19913;-39
2022/01/27 03:41:55;;;;;;;;;;;;;;;17.47;44.99;101039.16;2080641;28;19919;-39
2022/01/27 03:43:04;;;;;;;;;;;;;;;17.48;44.95;101041.75;2086829;28;20692;-39
2022/01/27 03:44:05;;;;;;;;;;;;;;;17.48;45.05;101041.75;2086637;28;19916;-39
2022/01/27 03:45:06;;;;;;;;;;;;;;;17.49;44.82;101038.03;2086065;28;19928;-39
2022/01/27 03:46:06;;;;;;;;;;;;;;;17.49;45.07;101043.50;2082627;28;19921;-38
2022/01/27 03:47:07;;;;;;;;;;;;;;;17.50;44.91;101039.78;2081461;28;20074;-39
2022/01/27 03:48:07;;;;;;;;;;;;;;;17.50;44.67;101039.78;2085476;28;19964;-39
2022/01/27 03:49:08;;;;;;;;;;;;;;;17.50;44.78;101045.22;2084382;28;19930;-39
2022/01/27 03:50:08;;;;;;;;;;;;;;;17.51;44.75;101040.63;2084574;28;19920;-38
2022/01/27 03:51:09;;;;;;;;;;;;;;;17.51;44.77;101040.63;2085243;28;19921;-39
2022/01/27 03:52:09;;;;;;;;;;;;;;;17.51;44.66;101044.22;2081944;28;20007;-39
2022/01/27 03:53:10;;;;;;;;;;;;;;;17.51;44.59;101041.50;2086221;28;19955;-39
2022/01/27 03:54:10;;;;;;;;;;;;;;;17.51;44.51;101041.50;2083972;28;19920;-39
2022/01/27 03:55:10;;;;;;;;;;;;;;;17.51;44.51;101036.03;2082825;28;19932;-38
2022/01/27 03:56:11;;;;;;;;;;;;;;;17.52;44.51;101039.66;2079839;28;19916;-39
2022/01/27 03:57:11;;;;;;;;;;;;;;;17.51;44.50;101033.31;2081628;28;20385;-39
2022/01/27 03:58:11;;;;;;;;;;;;;;;17.51;44.58;101040.63;2082283;28;19924;-39
2022/01/27 03:59:11;;;;;;;;;;;;;;;17.51;44.50;101038.78;2085926;28;19927;-39
2022/01/27 04:00:12;;;;;;;;;;;;;;;17.51;44.70;101036.03;2084551;28;20011;-39
2022/01/27 04:01:12;;;;;;;;;;;;;;;17.50;44.62;101031.59;2085096;28;20229;-39
2022/01/27 04:02:13;;;;;;;;;;;;;;;17.50;44.47;101028.88;2086485;28;19981;-39
2022/01/27 04:03:15;;;;;;;;;;;;;;;17.48;44.56;101028.09;2085493;28;19920;-38
2022/01/27 04:04:16;;;;;;;;;;;;;;;17.48;44.40;101029.97;2084638;28;20003;-39
2022/01/27 04:05:18;;;;;;;;;;;;;;;17.46;44.49;101032.81;2083517;28;19966;-39
2022/01/27 04:06:22;;;;;;;;;;;;;;;17.47;44.78;101034.56;2082506;28;19959;-39
2022/01/27 04:07:22;;;;;;;;;;;;;;;17.46;44.61;101042.84;2081566;28;20015;-39
2022/01/27 04:08:23;;;;;;;;;;;;;;;17.47;44.52;101036.41;2084157;28;20155;-39
2022/01/27 04:09:24;;;;;;;;;;;;;;;17.44;44.76;101034.81;2080916;28;20430;-39
2022/01/27 04:10:24;;;;;;;;;;;;;;;17.44;44.76;101039.34;2085227;28;19931;-39
2022/01/27 04:11:25;;;;;;;;;;;;;;;17.44;44.83;101033.91;2084990;28;19912;-39
2022/01/27 04:12:25;;;;;;;;;;;;;;;17.41;44.70;101029.56;2085522;28;20278;-39
2022/01/27 04:13:25;;;;;;;;;;;;;;;17.41;44.97;101035.00;2085063;28;19921;-39
2022/01/27 04:14:25;;;;;;;;;;;;;;;17.41;44.78;101029.56;2086646;28;19935;-39
2022/01/27 04:15:26;;;;;;;;;;;;;;;17.40;44.89;101026.97;2084529;28;19924;-39
2022/01/27 04:16:26;;;;;;;;;;;;;;;17.39;44.87;101031.53;2084856;28;19920;-39
2022/01/27 04:17:27;;;;;;;;;;;;;;;17.40;44.82;101035.16;2081947;28;19920;-39
2022/01/27 04:18:27;;;;;;;;;;;;;;;17.38;44.82;101029.81;2083375;28;20413;-39
2022/01/27 04:19:28;;;;;;;;;;;;;;;17.37;44.77;101030.81;2084955;28;20013;-39
2022/01/27 04:20:28;;;;;;;;;;;;;;;17.38;45.07;101035.25;2084024;28;20338;-39
2022/01/27 04:21:28;;;;;;;;;;;;;;;17.38;44.93;101034.38;2081371;28;19920;-39
2022/01/27 04:22:29;;;;;;;;;;;;;;;17.36;44.94;101037.22;2081615;28;19921;-39
2022/01/27 04:23:29;;;;;;;;;;;;;;;17.36;44.90;101042.66;2083223;28;20220;-39
2022/01/27 04:24:30;;;;;;;;;;;;;;;17.36;44.87;101037.22;2085159;28;19920;-39
2022/01/27 04:25:32;;;;;;;;;;;;;;;17.36;44.92;101032.63;2084175;28;20310;-39
2022/01/27 04:26:42;;;;;;;;;;;;;;;17.36;44.94;101034.50;2083601;28;20299;-39
2022/01/27 04:27:48;;;;;;;;;;;;;;;17.35;44.92;101036.34;2084616;28;19916;-39
2022/01/27 04:28:51;;;;;;;;;;;;;;;17.35;44.72;101036.34;2086695;28;19920;-39
2022/01/27 04:29:51;;;;;;;;;;;;;;;17.35;45.00;101038.22;2082566;28;19987;-39
2022/01/27 04:30:53;;;;;;;;;;;;;;;17.34;44.52;101039.19;2083311;28;19927;-39
2022/01/27 04:31:54;;;;;;;;;;;;;;;17.35;44.53;101046.41;2082627;28;20386;-39
2022/01/27 04:32:58;;;;;;;;;;;;;;;17.34;44.90;101045.53;2086941;28;19916;-39
2022/01/27 04:34:01;;;;;;;;;;;;;;;17.33;44.54;101046.50;2084916;28;20210;-39
2022/01/27 04:35:04;;;;;;;;;;;;;;;17.33;44.57;101042.91;2082352;28;19928;-39
2022/01/27 04:36:14;;;;;;;;;;;;;;;17.32;44.90;101046.59;2085911;28;19943;-39
2022/01/27 04:37:14;;;;;;;;;;;;;;;17.30;45.03;101043.16;2084710;28;20624;-39
2022/01/27 04:38:21;;;;;;;;;;;;;;;17.29;44.87;101046.84;2078113;28;19912;-39
2022/01/27 04:39:29;;;;;;;;;;;;;;;17.29;44.79;101042.25;2078564;28;20431;-39
2022/01/27 04:40:44;;;;;;;;;;;;;;;17.28;44.94;101040.53;2085535;28;19955;-39
2022/01/27 04:41:55;;;;;;;;;;;;;;;17.29;45.03;101041.38;2085009;28;19997;-39
2022/01/27 04:44:08;;;;;;;;;;;;;;;17.27;44.80;101048.81;2085507;28;19916;-39
2022/01/27 04:45:10;;;;;;;;;;;;;;;17.26;45.07;101044.34;2079224;28;20704;-39
2022/01/27 04:47:24;;;;;;;;;;;;;;;17.23;44.93;101044.59;2083709;28;20033;-39
2022/01/27 04:48:26;;;;;;;;;;;;;;;17.24;45.22;101044.44;2082084;28;19924;-39
2022/01/27 04:49:26;;;;;;;;;;;;;;;17.24;44.97;101049.91;2084373;28;19978;-39
2022/01/27 04:50:28;;;;;;;;;;;;;;;17.23;45.04;101047.31;2080658;28;19924;-38
2022/01/27 04:51:29;;;;;;;;;;;;;;;17.23;45.16;101044.59;2081830;28;19917;-39
2022/01/27 04:52:32;;;;;;;;;;;;;;;17.23;45.05;101041.88;2080037;28;20259;-39
2022/01/27 04:53:38;;;;;;;;;;;;;;;17.21;45.05;101050.13;2084274;28;20589;-39
2022/01/27 04:55:48;;;;;;;;;;;;;;;17.23;44.81;101052.75;2082312;28;19931;-38
2022/01/27 04:56:48;;;;;;;;;;;;;;;17.24;44.89;101059.94;2086907;28;20467;-38
2022/01/27 04:57:56;;;;;;;;;;;;;;;17.23;44.80;101059.06;2081319;28;19920;-39
2022/01/27 04:59:01;;;;;;;;;;;;;;;17.23;44.92;101058.22;2080934;28;19942;-39
2022/01/27 05:00:01;;;;;;;;;;;;;;;17.23;44.81;101061.81;2082088;28;20234;-39
2022/01/27 05:01:03;;;;;;;;;;;;;;;17.24;44.80;101059.94;2082732;28;19922;-39
2022/01/27 05:02:10;;;;;;;;;;;;;;;17.23;44.70;101060.94;2087402;28;20694;-39
2022/01/27 05:03:23;;;;;;;;;;;;;;;17.22;44.84;101056.44;2084428;28;19920;-39
2022/01/27 05:04:29;;;;;;;;;;;;;;;17.22;44.78;101060.06;2083162;28;20769;-38
2022/01/27 05:05:36;;;;;;;;;;;;;;;17.22;44.96;101053.72;2086299;28;20344;-39
2022/01/27 05:06:37;;;;;;;;;;;;;;;17.22;45.07;101056.44;2078913;28;19924;-39
2022/01/27 05:07:38;;;;;;;;;;;;;;;17.21;44.78;101060.19;2084043;28;19916;-39
2022/01/27 05:08:39;;;;;;;;;;;;;;;17.21;44.77;101055.59;2083546;28;20352;-39
2022/01/27 05:09:48;;;;;;;;;;;;;;;17.22;44.75;101056.44;2084434;28;19916;-39
2022/01/27 05:10:57;;;;;;;;;;;;;;;17.21;44.80;101060.19;2080606;28;20538;-39
2022/01/27 05:12:09;;;;;;;;;;;;;;;17.24;44.62;101058.06;2082497;28;19920;-39
2022/01/27 05:13:15;;;;;;;;;;;;;;;17.25;44.68;101061.69;2081793;28;19982;-39
2022/01/27 05:14:20;;;;;;;;;;;;;;;17.27;44.59;101062.44;2088106;28;19920;-40
2022/01/27 05:15:21;;;;;;;;;;;;;;;17.28;44.26;101062.31;2085621;28;19920;-39
2022/01/27 05:16:22;;;;;;;;;;;;;;;17.30;43.98;101067.66;2082790;28;19927;-40
2022/01/27 05:17:22;;;;;;;;;;;;;;;17.30;44.45;101064.94;2082283;28;19930;-39
2022/01/27 05:18:22;;;;;;;;;;;;;;;17.31;44.16;101062.09;2081902;28;19989;-39
2022/01/27 05:19:22;;;;;;;;;;;;;;;17.31;44.11;101067.53;2080638;28;19921;-40
2022/01/27 05:20:23;;;;;;;;;;;;;;;17.31;44.23;101063.94;2084394;28;19951;-39
2022/01/27 05:21:25;;;;;;;;;;;;;;;17.32;44.22;101068.41;2084793;28;20350;-39
2022/01/27 05:22:25;;;;;;;;;;;;;;;17.32;44.08;101068.41;2081790;28;20539;-39
2022/01/27 05:23:25;;;;;;;;;;;;;;;17.33;44.10;101072.88;2083632;28;19927;-39
2022/01/27 05:24:26;;;;;;;;;;;;;;;17.32;44.04;101066.56;2085164;28;19927;-39
2022/01/27 05:25:26;;;;;;;;;;;;;;;17.33;43.90;101071.03;2079638;28;19921;-39
2022/01/27 05:26:26;;;;;;;;;;;;;;;17.34;43.88;101074.59;2082895;28;19920;-39
2022/01/27 05:27:26;;;;;;;;;;;;;;;17.35;43.86;101073.66;2083252;28;19950;-39
2022/01/27 05:28:27;;;;;;;;;;;;;;;17.35;43.78;101068.19;2082636;28;19964;-39
2022/01/27 05:29:27;;;;;;;;;;;;;;;17.36;43.71;101075.38;2085097;28;20305;-39
2022/01/27 05:30:27;;;;;;;;;;;;;;;17.37;43.57;101071.69;2079308;28;19928;-38
2022/01/27 05:31:27;;;;;;;;;;;;;;;17.38;43.72;101073.41;2084141;28;20040;-39
2022/01/27 05:32:28;;;;;;;;;;;;;;;17.39;43.67;101080.59;2087452;28;19943;-39
2022/01/27 05:33:28;;;;;;;;;;;;;;;17.39;43.53;101077.84;2083075;28;19927;-38
2022/01/27 05:34:28;;;;;;;;;;;;;;;17.39;43.70;101080.59;2085394;28;20375;-38
2022/01/27 05:35:29;;;;;;;;;;;;;;;17.41;43.46;101077.75;2087321;28;19927;-38
2022/01/27 05:36:29;;;;;;;;;;;;;;;17.40;43.46;101076.88;2085321;28;19950;-38
2022/01/27 05:37:29;;;;;;;;;;;;;;;17.41;43.53;101072.31;2082067;28;19920;-38
2022/01/27 05:38:29;;;;;;;;;;;;;;;17.41;43.42;101078.63;2087090;28;19944;-39
2022/01/27 05:39:30;;;;;;;;;;;;;;;17.42;43.39;101076.75;2086505;28;19959;-38
2022/01/27 05:40:30;;;;;;;;;;;;;;;17.42;43.22;101077.66;2081638;28;20016;-38
2022/01/27 05:41:31;;;;;;;;;;;;;;;17.43;43.31;101073.06;2083894;28;19919;-38
2022/01/27 05:42:31;;;;;;;;;;;;;;;17.44;43.02;101072.97;2087745;28;20187;-39
2022/01/27 05:43:32;;;;;;;;;;;;;;;17.45;43.12;101073.81;2082287;28;20473;-38
2022/01/27 05:44:32;;;;;;;;;;;;;;;17.47;43.13;101072.72;2084333;28;19969;-38
2022/01/27 05:45:33;;;;;;;;;;;;;;;17.49;42.95;101064.41;2079602;28;19959;-39
2022/01/27 05:46:33;;;;;;;;;;;;;;;17.51;43.05;101066.03;2084684;28;19922;-39
2022/01/27 05:47:33;;;;;;;;;;;;;;;17.54;42.88;101074.00;2086956;28;19916;-39
2022/01/27 05:48:34;;;;;;;;;;;;;;;17.57;42.73;101067.44;2082269;28;19943;-38
2022/01/27 05:49:34;;;;;;;;;;;;;;;17.62;42.40;101069.81;2083179;28;19916;-39
2022/01/27 05:50:34;;;;;;;;;;;;;;;17.64;42.09;101073.28;2083052;28;19913;-39
2022/01/27 05:51:35;;;;;;;;;;;;;;;17.68;42.42;101069.34;2083683;28;20409;-41
2022/01/27 05:52:35;;;;;;;;;;;;;;;17.74;42.07;101068.88;2083918;28;19932;-40
2022/01/27 05:53:37;;;;;;;;;;;;;;;17.78;42.18;101070.38;2084171;28;19917;-40
2022/01/27 05:54:37;;;;;;;;;;;;;;;17.81;42.15;101067.47;2081338;28;19917;-39
2022/01/27 05:55:37;;;;;;;;;;;;;;;17.84;42.08;101075.41;2084209;28;19920;-37
2022/01/27 05:56:38;;;;;;;;;;;;;;;17.89;41.95;101072.31;2083615;28;20023;-37
2022/01/27 05:57:38;;;;;;;;;;;;;;;17.92;41.82;101074.81;2079884;28;19928;-38
2022/01/27 05:58:38;;;;;;;;;;;;;;;17.95;41.72;101072.69;2077544;28;19916;-38
2022/01/27 05:59:39;;;;;;;;;;;;;;;17.99;41.53;101076.94;2081702;28;20429;-37